createdAt,value
2023-05-04T00:02:07.175Z,8.57
2023-05-04T00:04:36.540Z,8.54
2023-05-04T00:07:03.188Z,8.52
2023-05-04T00:09:31.106Z,8.50
2023-05-04T00:12:01.747Z,8.48
2023-05-04T00:14:28.760Z,8.45
2023-05-04T00:16:55.619Z,8.43
2023-05-04T00:19:22.444Z,8.41
2023-05-04T00:21:49.193Z,8.39
2023-05-04T00:24:28.895Z,8.39
2023-05-04T00:26:55.692Z,8.40
2023-05-04T00:29:22.747Z,8.41
2023-05-04T00:31:49.695Z,8.44
2023-05-04T00:34:19.074Z,8.46
2023-05-04T00:36:55.330Z,8.47
2023-05-04T00:39:22.013Z,8.47
2023-05-04T00:41:52.751Z,8.47
2023-05-04T00:44:22.817Z,8.47
2023-05-04T00:46:51.970Z,8.46
2023-05-04T00:49:26.538Z,8.46
2023-05-04T00:51:56.364Z,8.44
2023-05-04T00:54:25.268Z,8.41
2023-05-04T00:56:52.816Z,8.38
2023-05-04T00:59:27.630Z,8.35
2023-05-04T01:02:00.136Z,8.32
2023-05-04T01:04:36.590Z,8.28
2023-05-04T01:07:23.813Z,8.22
2023-05-04T01:10:10.101Z,8.17
2023-05-04T01:12:47.439Z,8.10
2023-05-04T01:15:21.147Z,8.03
2023-05-04T01:17:51.327Z,7.97
2023-05-04T01:20:18.788Z,7.92
2023-05-04T01:22:45.660Z,7.85
2023-05-04T01:25:12.637Z,7.80
2023-05-04T01:27:48.626Z,7.75
2023-05-04T01:30:36.808Z,7.68
2023-05-04T01:33:04.613Z,7.59
2023-05-04T01:35:40.806Z,7.52
2023-05-04T01:38:15.111Z,7.46
2023-05-04T01:40:41.846Z,7.42
2023-05-04T01:43:16.321Z,7.38
2023-05-04T01:45:55.664Z,7.35
2023-05-04T01:48:22.676Z,7.34
2023-05-04T01:50:49.573Z,7.32
2023-05-04T01:53:16.283Z,7.31
2023-05-04T01:55:45.493Z,7.30
2023-05-04T01:58:12.184Z,7.30
2023-05-04T02:00:39.092Z,7.31
2023-05-04T02:03:06.073Z,7.31
2023-05-04T02:05:32.875Z,7.32
2023-05-04T02:07:59.477Z,7.34
2023-05-04T02:10:26.254Z,7.36
2023-05-04T02:12:54.052Z,7.37
2023-05-04T02:15:20.678Z,7.40
2023-05-04T02:17:48.547Z,7.43
2023-05-04T02:20:15.369Z,7.47
2023-05-04T02:22:45.136Z,7.51
2023-05-04T02:25:12.049Z,7.56
2023-05-04T02:27:38.743Z,7.60
2023-05-04T02:30:06.817Z,7.65
2023-05-04T02:32:33.817Z,7.71
2023-05-04T02:35:00.966Z,7.77
2023-05-04T02:37:28.780Z,7.83
2023-05-04T02:39:55.550Z,7.89
2023-05-04T02:42:22.795Z,7.95
2023-05-04T02:44:49.742Z,7.99
2023-05-04T02:47:19.555Z,8.03
2023-05-04T02:49:46.298Z,8.07
2023-05-04T02:52:13.861Z,8.10
2023-05-04T02:54:40.804Z,8.14
2023-05-04T02:57:07.719Z,8.19
2023-05-04T02:59:36.846Z,8.22
2023-05-04T03:02:03.496Z,8.25
2023-05-04T03:04:30.565Z,8.27
2023-05-04T03:06:57.378Z,8.29
2023-05-04T03:09:23.903Z,8.30
2023-05-04T03:11:50.657Z,8.33
2023-05-04T03:14:20.110Z,8.36
2023-05-04T03:16:49.777Z,8.38
2023-05-04T03:19:18.464Z,8.39
2023-05-04T03:21:46.141Z,8.42
2023-05-04T03:24:17.565Z,8.44
2023-05-04T03:26:44.782Z,8.47
2023-05-04T03:29:11.656Z,8.48
2023-05-04T03:31:38.871Z,8.49
2023-05-04T03:34:06.166Z,8.51
2023-05-04T03:36:32.865Z,8.53
2023-05-04T03:39:04.772Z,8.55
2023-05-04T03:41:31.618Z,8.56
2023-05-04T03:43:59.071Z,8.59
2023-05-04T03:46:25.928Z,8.62
2023-05-04T03:48:52.528Z,8.64
2023-05-04T03:51:19.605Z,8.67
2023-05-04T03:53:46.570Z,8.69
2023-05-04T03:56:16.528Z,8.71
2023-05-04T03:58:48.391Z,8.73
2023-05-04T04:01:26.715Z,8.76
2023-05-04T04:03:53.519Z,8.79
2023-05-04T04:06:21.239Z,8.82
2023-05-04T04:08:48.494Z,8.85
2023-05-04T04:11:15.538Z,8.88
2023-05-04T04:13:42.265Z,8.91
2023-05-04T04:16:08.990Z,8.93
2023-05-04T04:18:35.839Z,8.96
2023-05-04T04:21:02.847Z,8.98
2023-05-04T04:23:30.475Z,9.02
2023-05-04T04:25:57.656Z,9.05
2023-05-04T04:28:24.268Z,9.08
2023-05-04T04:30:51.000Z,9.11
2023-05-04T04:33:20.812Z,9.17
2023-05-04T04:35:50.242Z,9.22
2023-05-04T04:38:22.087Z,9.27
2023-05-04T04:40:49.095Z,9.32
2023-05-04T04:43:19.005Z,9.38
2023-05-04T04:45:48.922Z,9.44
2023-05-04T04:48:16.276Z,9.51
2023-05-04T04:50:45.679Z,9.57
2023-05-04T04:53:13.857Z,9.63
2023-05-04T04:55:49.810Z,9.70
2023-05-04T04:58:16.761Z,9.75
2023-05-04T05:00:52.892Z,9.81
2023-05-04T05:03:19.765Z,9.87
2023-05-04T05:05:51.803Z,9.93
2023-05-04T05:08:43.248Z,10.00
2023-05-04T05:11:10.514Z,10.09
2023-05-04T05:13:37.457Z,10.17
2023-05-04T05:16:05.230Z,10.25
2023-05-04T05:18:32.333Z,10.34
2023-05-04T05:21:19.692Z,10.41
2023-05-04T05:23:46.639Z,10.50
2023-05-04T05:26:15.109Z,10.58
2023-05-04T05:28:42.048Z,10.65
2023-05-04T05:31:11.698Z,10.71
2023-05-04T05:33:41.761Z,10.77
2023-05-04T05:36:08.629Z,10.82
2023-05-04T05:38:35.153Z,10.87
2023-05-04T05:41:02.114Z,10.91
2023-05-04T05:43:28.831Z,10.95
2023-05-04T05:45:55.626Z,10.99
2023-05-04T05:48:22.321Z,11.03
2023-05-04T05:50:49.595Z,11.07
2023-05-04T05:53:16.422Z,11.13
2023-05-04T05:55:43.353Z,11.18
2023-05-04T05:58:10.204Z,11.24
2023-05-04T06:00:36.734Z,11.29
2023-05-04T06:03:03.459Z,11.35
2023-05-04T06:05:33.409Z,11.41
2023-05-04T06:08:00.382Z,11.48
2023-05-04T06:10:27.504Z,11.55
2023-05-04T06:12:54.366Z,11.61
2023-05-04T06:15:21.193Z,11.67
2023-05-04T06:17:51.393Z,11.71
2023-05-04T06:20:20.371Z,11.74
2023-05-04T06:22:46.899Z,11.78
2023-05-04T06:25:13.851Z,11.83
2023-05-04T06:27:40.626Z,11.88
2023-05-04T06:30:08.371Z,11.91
2023-05-04T06:32:35.338Z,11.95
2023-05-04T06:35:02.574Z,11.99
2023-05-04T06:37:29.707Z,12.02
2023-05-04T06:39:56.790Z,12.05
2023-05-04T06:42:23.662Z,12.07
2023-05-04T06:44:51.699Z,12.10
2023-05-04T06:47:21.286Z,12.13
2023-05-04T06:49:50.707Z,12.17
2023-05-04T06:52:18.071Z,12.22
2023-05-04T06:54:45.651Z,12.27
2023-05-04T06:57:14.553Z,12.33
2023-05-04T06:59:41.471Z,12.38
2023-05-04T07:02:08.321Z,12.44
2023-05-04T07:04:35.142Z,12.49
2023-05-04T07:07:02.847Z,12.55
2023-05-04T07:09:29.558Z,12.61
2023-05-04T07:11:56.308Z,12.68
2023-05-04T07:14:23.154Z,12.75
2023-05-04T07:16:49.829Z,12.82
2023-05-04T07:19:16.928Z,12.88
2023-05-04T07:21:43.924Z,12.93
2023-05-04T07:24:10.604Z,12.97
2023-05-04T07:26:37.457Z,13.01
2023-05-04T07:29:04.179Z,13.04
2023-05-04T07:31:31.034Z,13.07
2023-05-04T07:33:58.185Z,13.11
2023-05-04T07:36:26.170Z,13.14
2023-05-04T07:38:53.460Z,13.17
2023-05-04T07:41:20.394Z,13.20
2023-05-04T07:43:47.111Z,13.24
2023-05-04T07:46:15.828Z,13.29
2023-05-04T07:48:42.624Z,13.33
2023-05-04T07:51:18.588Z,13.38
2023-05-04T07:53:45.328Z,13.44
2023-05-04T07:56:13.152Z,13.48
2023-05-04T07:58:40.772Z,13.52
2023-05-04T08:01:07.746Z,13.57
2023-05-04T08:03:34.562Z,13.62
2023-05-04T08:06:01.511Z,13.67
2023-05-04T08:08:28.554Z,13.74
2023-05-04T08:11:01.978Z,13.82
2023-05-04T08:13:35.447Z,13.90
2023-05-04T08:16:02.195Z,13.98
2023-05-04T08:18:29.008Z,14.08
2023-05-04T08:20:56.047Z,14.19
2023-05-04T08:23:22.618Z,14.28
2023-05-04T08:25:49.293Z,14.37
2023-05-04T08:28:16.906Z,14.47
2023-05-04T08:30:43.683Z,14.55
2023-05-04T08:33:10.426Z,14.60
2023-05-04T08:35:37.437Z,14.62
2023-05-04T08:38:04.593Z,14.62
2023-05-04T08:40:33.181Z,14.61
2023-05-04T08:42:59.919Z,14.58
2023-05-04T08:45:28.348Z,14.52
2023-05-04T08:47:55.276Z,14.48
2023-05-04T08:50:22.187Z,14.44
2023-05-04T08:52:49.746Z,14.38
2023-05-04T08:55:17.044Z,14.31
2023-05-04T08:57:46.959Z,14.26
2023-05-04T09:00:16.321Z,14.22
2023-05-04T09:02:45.381Z,14.20
2023-05-04T09:05:12.555Z,14.18
2023-05-04T09:07:39.401Z,14.14
2023-05-04T09:10:06.900Z,14.12
2023-05-04T09:12:33.657Z,14.08
2023-05-04T09:15:21.249Z,14.06
2023-05-04T09:18:14.518Z,14.06
2023-05-04T09:20:49.013Z,14.07
2023-05-04T09:23:17.292Z,14.07
2023-05-04T09:25:51.839Z,14.07
2023-05-04T09:28:20.987Z,14.08
2023-05-04T09:30:48.592Z,14.09
2023-05-04T09:33:16.157Z,14.12
2023-05-04T09:35:46.015Z,14.15
2023-05-04T09:38:26.308Z,14.19
2023-05-04T09:40:55.920Z,14.22
2023-05-04T09:43:24.011Z,14.25
2023-05-04T09:45:50.957Z,14.28
2023-05-04T09:48:33.800Z,14.30
2023-05-04T09:51:05.803Z,14.30
2023-05-04T09:53:34.498Z,14.30
2023-05-04T09:56:10.459Z,14.29
2023-05-04T09:58:37.889Z,14.28
2023-05-04T10:01:05.384Z,14.27
2023-05-04T10:03:32.626Z,14.26
2023-05-04T10:06:02.177Z,14.27
2023-05-04T10:08:29.347Z,14.27
2023-05-04T10:10:56.961Z,14.24
2023-05-04T10:13:24.303Z,14.22
2023-05-04T10:16:05.316Z,14.22
2023-05-04T10:19:00.137Z,14.22
2023-05-04T10:21:53.181Z,14.20
2023-05-04T10:24:57.937Z,14.19
2023-05-04T10:27:47.963Z,14.19
2023-05-04T10:30:20.248Z,14.19
2023-05-04T10:32:54.942Z,14.19
2023-05-04T10:35:21.651Z,14.22
2023-05-04T10:37:53.955Z,14.25
2023-05-04T10:40:35.946Z,14.28
2023-05-04T10:43:03.291Z,14.31
2023-05-04T10:45:43.200Z,14.35
2023-05-04T10:48:09.998Z,14.38
2023-05-04T10:50:48.804Z,14.39
2023-05-04T10:53:17.371Z,14.38
2023-05-04T10:55:46.347Z,14.37
2023-05-04T10:58:16.109Z,14.36
2023-05-04T11:00:47.299Z,14.34
2023-05-04T11:03:14.731Z,14.36
2023-05-04T11:05:44.010Z,14.39
2023-05-04T11:08:17.560Z,14.42
2023-05-04T11:10:47.124Z,14.44
2023-05-04T11:13:15.512Z,14.45
2023-05-04T11:15:46.127Z,14.44
2023-05-04T11:18:13.206Z,14.42
2023-05-04T11:20:40.820Z,14.42
2023-05-04T11:23:09.866Z,14.43
2023-05-04T11:25:37.206Z,14.46
2023-05-04T11:28:06.714Z,14.49
2023-05-04T11:30:35.394Z,14.52
2023-05-04T11:33:11.132Z,14.55
2023-05-04T11:35:38.602Z,14.55
2023-05-04T11:38:06.958Z,14.56
2023-05-04T11:40:36.700Z,14.55
2023-05-04T11:43:03.834Z,14.51
2023-05-04T11:45:32.825Z,14.48
2023-05-04T11:48:00.525Z,14.45
2023-05-04T11:50:28.772Z,14.42
2023-05-04T11:53:08.408Z,14.38
2023-05-04T11:55:41.777Z,14.33
2023-05-04T11:58:10.265Z,14.28
2023-05-04T12:00:41.431Z,14.22
2023-05-04T12:03:14.429Z,14.16
2023-05-04T12:05:52.452Z,14.10
2023-05-04T12:08:41.461Z,14.07
2023-05-04T12:11:16.539Z,14.05
2023-05-04T12:13:45.337Z,14.03
2023-05-04T12:16:14.718Z,14.02
2023-05-04T12:18:43.709Z,14.01
2023-05-04T12:21:12.597Z,14.00
2023-05-04T12:23:40.960Z,14.00
2023-05-04T12:26:09.744Z,14.00
2023-05-04T12:28:38.561Z,13.99
2023-05-04T12:31:06.324Z,13.98
2023-05-04T12:33:33.882Z,13.96
2023-05-04T12:36:05.096Z,13.94
2023-05-04T12:38:32.284Z,13.93
2023-05-04T12:41:03.539Z,13.91
2023-05-04T12:43:31.652Z,13.88
2023-05-04T12:45:58.788Z,13.87
2023-05-04T12:48:30.981Z,13.86
2023-05-04T12:50:59.224Z,13.86
2023-05-04T12:53:31.542Z,13.87
2023-05-04T12:55:59.754Z,13.88
2023-05-04T12:58:27.447Z,13.89
2023-05-04T13:00:56.030Z,13.89
2023-05-04T13:03:23.367Z,13.92
2023-05-04T13:05:50.568Z,13.95
2023-05-04T13:08:19.037Z,13.99
2023-05-04T13:10:54.880Z,14.03
2023-05-04T13:13:25.632Z,14.06
2023-05-04T13:15:52.773Z,14.09
2023-05-04T13:18:19.994Z,14.14
2023-05-04T13:20:46.745Z,14.18
2023-05-04T13:23:13.535Z,14.23
2023-05-04T13:25:40.534Z,14.28
2023-05-04T13:28:07.483Z,14.33
2023-05-04T13:30:34.551Z,14.37
2023-05-04T13:33:13.438Z,14.41
2023-05-04T13:35:48.481Z,14.42
2023-05-04T13:38:15.450Z,14.43
2023-05-04T13:40:43.500Z,14.43
2023-05-04T13:43:10.195Z,14.41
2023-05-04T13:45:39.582Z,14.39
2023-05-04T13:48:06.140Z,14.38
2023-05-04T13:50:33.198Z,14.34
2023-05-04T13:52:59.803Z,14.29
2023-05-04T13:55:26.921Z,14.25
2023-05-04T13:57:53.679Z,14.19
2023-05-04T14:00:20.928Z,14.13
2023-05-04T14:02:47.770Z,14.09
2023-05-04T14:05:14.661Z,14.05
2023-05-04T14:07:41.511Z,14.00
2023-05-04T14:10:08.733Z,13.95
2023-05-04T14:12:35.295Z,13.90
2023-05-04T14:15:02.260Z,13.85
2023-05-04T14:17:29.005Z,13.82
2023-05-04T14:19:55.686Z,13.79
2023-05-04T14:22:22.902Z,13.77
2023-05-04T14:24:50.354Z,13.75
2023-05-04T14:27:17.199Z,13.71
2023-05-04T14:29:46.384Z,13.69
2023-05-04T14:32:17.094Z,13.65
2023-05-04T14:34:46.121Z,13.61
2023-05-04T14:37:12.688Z,13.59
2023-05-04T14:39:39.505Z,13.57
2023-05-04T14:42:06.300Z,13.55
2023-05-04T14:44:33.640Z,13.53
2023-05-04T14:47:03.513Z,13.51
2023-05-04T14:49:37.391Z,13.48
2023-05-04T14:52:04.420Z,13.47
2023-05-04T14:54:31.335Z,13.45
2023-05-04T14:56:59.222Z,13.44
2023-05-04T14:59:26.066Z,13.43
2023-05-04T15:01:54.055Z,13.42
2023-05-04T15:04:20.751Z,13.43
2023-05-04T15:06:48.809Z,13.43
2023-05-04T15:09:15.556Z,13.42
2023-05-04T15:11:42.289Z,13.40
2023-05-04T15:14:09.008Z,13.38
2023-05-04T15:16:35.811Z,13.35
2023-05-04T15:19:05.729Z,13.32
2023-05-04T15:21:32.598Z,13.29
2023-05-04T15:23:59.925Z,13.26
2023-05-04T15:26:28.314Z,13.24
2023-05-04T15:28:55.436Z,13.21
2023-05-04T15:31:22.398Z,13.20
2023-05-04T15:33:49.226Z,13.18
2023-05-04T15:36:15.947Z,13.16
2023-05-04T15:38:43.296Z,13.15
2023-05-04T15:41:10.568Z,13.12
2023-05-04T15:43:37.348Z,13.09
2023-05-04T15:46:04.284Z,13.07
2023-05-04T15:48:31.048Z,13.05
2023-05-04T15:50:57.694Z,13.04
2023-05-04T15:53:24.615Z,13.02
2023-05-04T15:55:51.318Z,13.01
2023-05-04T15:58:18.186Z,13.00
2023-05-04T16:00:47.557Z,12.99
2023-05-04T16:03:14.447Z,12.99
2023-05-04T16:05:41.231Z,12.98
2023-05-04T16:08:07.981Z,12.97
2023-05-04T16:10:35.560Z,12.95
2023-05-04T16:13:04.684Z,12.94
2023-05-04T16:15:31.346Z,12.94
2023-05-04T16:17:58.380Z,12.92
2023-05-04T16:20:26.226Z,12.91
2023-05-04T16:22:55.923Z,12.91
2023-05-04T16:25:22.687Z,12.89
2023-05-04T16:27:49.632Z,12.88
2023-05-04T16:30:16.684Z,12.87
2023-05-04T16:32:44.488Z,12.86
2023-05-04T16:35:11.361Z,12.84
2023-05-04T16:37:41.528Z,12.83
2023-05-04T16:40:17.644Z,12.82
2023-05-04T16:42:45.305Z,12.79
2023-05-04T16:45:13.175Z,12.77
2023-05-04T16:47:43.393Z,12.74
2023-05-04T16:50:13.268Z,12.72
2023-05-04T16:52:40.455Z,12.69
2023-05-04T16:55:10.636Z,12.67
2023-05-04T16:57:38.956Z,12.64
2023-05-04T17:00:10.344Z,12.62
2023-05-04T17:02:39.454Z,12.59
2023-05-04T17:05:06.294Z,12.57
2023-05-04T17:07:33.601Z,12.53
2023-05-04T17:10:00.389Z,12.50
2023-05-04T17:12:46.686Z,12.48
2023-05-04T17:15:13.540Z,12.44
2023-05-04T17:17:40.842Z,12.39
2023-05-04T17:20:15.627Z,12.35
2023-05-04T17:22:43.393Z,12.31
2023-05-04T17:25:11.490Z,12.27
2023-05-04T17:27:38.896Z,12.23
2023-05-04T17:30:06.479Z,12.19
2023-05-04T17:32:33.719Z,12.14
2023-05-04T17:35:24.091Z,12.10
2023-05-04T17:37:55.173Z,12.04
2023-05-04T17:40:23.797Z,12.00
2023-05-04T17:42:50.374Z,11.95
2023-05-04T17:45:17.481Z,11.91
2023-05-04T17:47:45.724Z,11.88
2023-05-04T17:50:12.705Z,11.82
2023-05-04T17:52:39.349Z,11.77
2023-05-04T17:55:06.593Z,11.71
2023-05-04T17:57:33.214Z,11.66
2023-05-04T17:59:59.905Z,11.61
2023-05-04T18:02:28.908Z,11.55
2023-05-04T18:04:55.630Z,11.49
2023-05-04T18:07:22.256Z,11.43
2023-05-04T18:09:48.752Z,11.37
2023-05-04T18:12:15.592Z,11.31
2023-05-04T18:14:42.153Z,11.25
2023-05-04T18:17:09.124Z,11.18
2023-05-04T18:19:36.570Z,11.11
2023-05-04T18:22:05.547Z,11.04
2023-05-04T18:24:33.987Z,10.97
2023-05-04T18:27:03.598Z,10.87
2023-05-04T18:29:31.422Z,10.77
2023-05-04T18:31:58.991Z,10.68
2023-05-04T18:34:25.576Z,10.59
2023-05-04T18:36:52.822Z,10.49
2023-05-04T18:39:19.754Z,10.39
2023-05-04T18:41:46.456Z,10.31
2023-05-04T18:44:16.665Z,10.23
2023-05-04T18:46:45.707Z,10.14
2023-05-04T18:49:12.229Z,10.03
2023-05-04T18:51:42.046Z,9.93
2023-05-04T18:54:20.954Z,9.83
2023-05-04T18:56:47.639Z,9.74
2023-05-04T18:59:14.343Z,9.65
2023-05-04T19:01:41.516Z,9.54
2023-05-04T19:04:08.405Z,9.45
2023-05-04T19:06:35.602Z,9.34
2023-05-04T19:09:02.747Z,9.25
2023-05-04T19:11:29.796Z,9.16
2023-05-04T19:13:56.417Z,9.08
2023-05-04T19:16:24.278Z,9.03
2023-05-04T19:18:51.016Z,8.99
2023-05-04T19:21:17.761Z,8.95
2023-05-04T19:23:47.164Z,8.93
2023-05-04T19:26:14.261Z,8.91
2023-05-04T19:28:41.194Z,8.89
2023-05-04T19:31:07.928Z,8.88
2023-05-04T19:33:47.398Z,8.87
2023-05-04T19:36:18.075Z,8.86
2023-05-04T19:38:47.089Z,8.85
2023-05-04T19:41:14.434Z,8.83
2023-05-04T19:43:44.343Z,8.82
2023-05-04T19:46:11.253Z,8.82
2023-05-04T19:48:38.497Z,8.83
2023-05-04T19:51:07.483Z,8.84
2023-05-04T19:53:34.494Z,8.84
2023-05-04T19:56:01.427Z,8.84
2023-05-04T19:58:30.107Z,8.82
2023-05-04T20:00:56.958Z,8.81
2023-05-04T20:03:26.917Z,8.77
2023-05-04T20:05:56.970Z,8.75
2023-05-04T20:08:23.915Z,8.72
2023-05-04T20:10:50.716Z,8.71
2023-05-04T20:13:26.637Z,8.70
2023-05-04T20:15:53.570Z,8.69
2023-05-04T20:18:20.460Z,8.69
2023-05-04T20:20:47.070Z,8.69
2023-05-04T20:23:13.775Z,8.69
2023-05-04T20:25:42.022Z,8.69
2023-05-04T20:28:08.732Z,8.68
2023-05-04T20:30:36.241Z,8.68
2023-05-04T20:33:03.155Z,8.68
2023-05-04T20:35:51.779Z,8.69
2023-05-04T20:38:35.620Z,8.70
2023-05-04T20:41:21.143Z,8.72
2023-05-04T20:44:21.214Z,8.75
2023-05-04T20:47:00.613Z,8.77
2023-05-04T20:49:52.441Z,8.78
2023-05-04T20:52:29.582Z,8.79
2023-05-04T20:55:11.723Z,8.80
2023-05-04T20:57:47.226Z,8.82
2023-05-04T21:00:33.520Z,8.83
2023-05-04T21:03:11.901Z,8.83
2023-05-04T21:05:42.675Z,8.84
2023-05-04T21:08:18.921Z,8.86
2023-05-04T21:10:58.764Z,8.86
2023-05-04T21:13:42.393Z,8.87
2023-05-04T21:16:15.199Z,8.89
2023-05-04T21:19:00.559Z,8.91
2023-05-04T21:21:38.247Z,8.91
2023-05-04T21:24:16.184Z,8.93
2023-05-04T21:26:55.726Z,8.93
2023-05-04T21:29:32.874Z,8.93
2023-05-04T21:32:20.853Z,8.94
2023-05-04T21:34:57.953Z,8.94
2023-05-04T21:37:43.824Z,8.95
2023-05-04T21:40:20.461Z,8.95
2023-05-04T21:43:08.699Z,8.96
2023-05-04T21:45:47.772Z,8.97
2023-05-04T21:48:27.066Z,8.97
2023-05-04T21:50:59.034Z,8.97
2023-05-04T21:53:35.738Z,8.98
2023-05-04T21:56:14.160Z,8.99
2023-05-04T21:58:53.966Z,8.99
2023-05-04T22:01:24.669Z,9.00
2023-05-04T22:04:01.287Z,9.02
2023-05-04T22:06:46.413Z,9.02
2023-05-04T22:09:20.236Z,9.03
2023-05-04T22:11:59.651Z,9.03
2023-05-04T22:14:42.332Z,9.01
2023-05-04T22:17:17.785Z,9.00
2023-05-04T22:19:50.310Z,8.98
2023-05-04T22:22:23.915Z,8.94
2023-05-04T22:25:02.308Z,8.91
2023-05-04T22:27:46.742Z,8.87
2023-05-04T22:30:19.697Z,8.83
2023-05-04T22:32:50.640Z,8.80
2023-05-04T22:35:35.173Z,8.78
2023-05-04T22:38:14.720Z,8.76
2023-05-04T22:40:49.850Z,8.74
2023-05-04T22:43:23.544Z,8.73
2023-05-04T22:46:00.263Z,8.71
2023-05-04T22:48:36.693Z,8.69
2023-05-04T22:51:10.697Z,8.66
2023-05-04T22:53:47.791Z,8.62
2023-05-04T22:56:26.195Z,8.58
2023-05-04T22:59:00.758Z,8.53
2023-05-04T23:01:46.310Z,8.47
2023-05-04T23:04:24.479Z,8.42
2023-05-04T23:07:09.379Z,8.34
2023-05-04T23:09:59.861Z,8.25
2023-05-04T23:12:43.816Z,8.17
2023-05-04T23:15:20.291Z,8.08
2023-05-04T23:17:49.991Z,8.00
2023-05-04T23:20:24.432Z,7.92
2023-05-04T23:23:01.079Z,7.84
2023-05-04T23:25:37.647Z,7.74
2023-05-04T23:28:20.541Z,7.67
2023-05-04T23:31:16.152Z,7.58
2023-05-04T23:34:13.744Z,7.49
2023-05-04T23:36:51.587Z,7.40
2023-05-04T23:39:26.871Z,7.32
2023-05-04T23:41:58.578Z,7.26
2023-05-04T23:44:34.101Z,7.17
2023-05-04T23:47:18.739Z,7.09
2023-05-04T23:49:57.362Z,7.02
2023-05-04T23:52:30.203Z,6.96
2023-05-04T23:55:03.750Z,6.91
2023-05-04T23:57:38.687Z,6.85
